首页
METAR-TAF:

METAR-TAF

机场 :

仁川國際機場

仁川国际机场, 大韩民国

纬度: 37-28N, 经度: 126-27E, 海拔: 7米

当前天气观测

该预报发布于28分钟前的23:30 UTC
风速9节,风向南转南东,在东南之间变化
温度 9°C
湿度 81%
气压 1017 hPa
能见度10公里或以上
多云层高于3000英尺
多云层高于8000英尺

METAR: RKSI 142330Z 15009KT 130V190 9999 BKN030 BKN080 09/06 Q1017 WS ALL RWY BECMG -RA

时间: 08:58 (23:58 UTC)

预报

该预报发布于58分钟前的23:00 UTC
预报有效从15日的 00点(UTC)到 16日的 06点(UTC)
风速12节,风向东南
能見度: 8000
多云层高于2500英尺
阴天层高于8000英尺
小雨
短暂存在
从 15日的 00点(UTC)到 15日的 01点(UTC)
少量云层高于1500英尺, 积雨云.
多云层高于2500英尺
阴天层高于8000英尺
雷暴, 雨
成为
从 15日的 01点(UTC)到 15日的 02点(UTC)
风速10节,风向西转西南
成为
从 15日的 03点(UTC)到 15日的 04点(UTC)
风速8节,风向北转东北
散云层高于3000英尺
多云层高于12000英尺

TAF: RKSI 142300Z 1500/1606 13012KT 8000 -RA BKN025 OVC080 TX15/1505Z TN03/1521Z TX14/1605Z TEMPO 1500/1501 TSRA FEW015CB BKN025 OVC080 BECMG 1501/1502 24010KT BECMG 1503/1504 03008KT NSW SCT030 BKN120

超过4000个机场的气象观测和天气预报(METAR&TAF报告)。

可查询的气象台以黄色和红色小点在地图上表示。

将鼠标移到小点上方,可查看气象台名称。

然后点击查看天气观测和预报。

如需切换地图:点击带黑十字的绿色按钮放大地图;点击带横线的绿色按钮缩小地图;或者点击绿色箭头查看邻近地区的地图。


METAR-TAF: